createdAt,value
2018-09-25T00:00:45.438Z,98676
2018-09-25T00:01:45.384Z,98674
2018-09-25T00:02:45.568Z,98676
2018-09-25T00:03:45.657Z,98674
2018-09-25T00:04:45.793Z,98673
2018-09-25T00:05:45.907Z,98676
2018-09-25T00:06:45.931Z,98680
2018-09-25T00:07:46.079Z,98675
2018-09-25T00:08:47.194Z,98672
2018-09-25T00:09:46.314Z,98673
2018-09-25T00:11:04.303Z,98672
2018-09-25T00:11:46.587Z,98675
2018-09-25T00:12:46.614Z,98671
2018-09-25T00:13:46.618Z,98674
2018-09-25T00:14:46.710Z,98674
2018-09-25T00:15:46.744Z,98676
2018-09-25T00:16:46.663Z,98677
2018-09-25T00:17:46.949Z,98673
2018-09-25T00:18:46.900Z,98677
2018-09-25T00:19:47.046Z,98676
2018-09-25T00:20:47.154Z,98676
2018-09-25T00:21:47.329Z,98673
2018-09-25T00:22:47.307Z,98670
2018-09-25T00:23:47.341Z,98668
2018-09-25T00:24:47.532Z,98667
2018-09-25T00:25:47.778Z,98670
2018-09-25T00:27:05.452Z,98667
2018-09-25T00:27:47.536Z,98677
2018-09-25T00:28:47.717Z,98676
2018-09-25T00:29:48.003Z,98675
2018-09-25T00:30:47.867Z,98677
2018-09-25T00:31:47.815Z,98680
2018-09-25T00:32:47.934Z,98679
2018-09-25T00:33:47.908Z,98680
2018-09-25T00:34:48.109Z,98683
2018-09-25T00:35:48.199Z,98680
2018-09-25T00:36:48.361Z,98682
2018-09-25T00:37:48.360Z,98685
2018-09-25T00:38:48.454Z,98689
2018-09-25T00:39:48.903Z,98683
2018-09-25T00:40:48.580Z,98685
2018-09-25T00:41:48.678Z,98685
2018-09-25T00:42:48.927Z,98685
2018-09-25T00:43:48.877Z,98684
2018-09-25T00:44:48.939Z,98685
2018-09-25T00:46:48.940Z,98687
2018-09-25T00:47:49.221Z,98688
2018-09-25T00:48:49.075Z,98692
2018-09-25T00:49:49.228Z,98692
2018-09-25T00:50:49.347Z,98691
2018-09-25T00:51:49.434Z,98689
2018-09-25T00:52:49.315Z,98690
2018-09-25T00:53:49.388Z,98690
2018-09-25T00:54:49.692Z,98690
2018-09-25T00:55:49.505Z,98685
2018-09-25T00:56:49.605Z,98684
2018-09-25T00:57:49.718Z,98684
2018-09-25T00:58:49.863Z,98679
2018-09-25T00:59:49.854Z,98681
2018-09-25T01:00:49.946Z,98680
2018-09-25T01:01:50.111Z,98677
2018-09-25T01:02:50.198Z,98676
2018-09-25T01:03:50.035Z,98679
2018-09-25T01:05:08.095Z,98672
2018-09-25T01:05:50.467Z,98672
2018-09-25T01:06:50.256Z,98682
2018-09-25T01:07:50.285Z,98678
2018-09-25T01:08:50.401Z,98679
2018-09-25T01:09:50.581Z,98677
2018-09-25T01:10:50.613Z,98680
2018-09-25T01:11:51.802Z,98677
2018-09-25T01:12:50.749Z,98679
2018-09-25T01:13:50.973Z,98682
2018-09-25T01:14:51.048Z,98683
2018-09-25T01:15:50.956Z,98683
2018-09-25T01:16:51.056Z,98683
2018-09-25T01:17:51.171Z,98686
2018-09-25T01:18:51.441Z,98679
2018-09-25T01:19:51.401Z,98680
2018-09-25T01:20:51.603Z,98677
2018-09-25T01:21:51.588Z,98674
2018-09-25T01:22:51.788Z,98671
2018-09-25T01:23:51.662Z,98667
2018-09-25T01:24:51.748Z,98669
2018-09-25T01:25:51.944Z,98676
2018-09-25T01:26:52.058Z,98672
2018-09-25T01:27:52.076Z,98673
2018-09-25T01:28:52.208Z,98669
2018-09-25T01:30:52.506Z,98674
2018-09-25T01:31:52.445Z,98674
2018-09-25T01:32:52.506Z,98678
2018-09-25T01:33:52.713Z,98680
2018-09-25T01:34:52.775Z,98679
2018-09-25T01:35:52.758Z,98679
2018-09-25T01:36:52.850Z,98678
2018-09-25T01:37:52.943Z,98683
2018-09-25T01:40:53.142Z,98680
2018-09-25T01:41:53.159Z,98681
2018-09-25T01:42:53.114Z,98682
2018-09-25T01:43:53.132Z,98677
2018-09-25T01:44:53.334Z,98682
2018-09-25T01:45:53.312Z,98673
2018-09-25T01:46:53.318Z,98677
2018-09-25T01:47:54.413Z,98675
2018-09-25T01:48:53.460Z,98672
2018-09-25T01:49:53.450Z,98674
2018-09-25T01:51:53.679Z,98674
2018-09-25T01:52:53.591Z,98672
2018-09-25T01:53:53.742Z,98676
2018-09-25T01:54:53.855Z,98672
2018-09-25T01:55:54.085Z,98679
2018-09-25T01:56:53.977Z,98679
2018-09-25T01:58:11.927Z,98676
2018-09-25T01:58:54.095Z,98679
2018-09-25T01:59:54.242Z,98676
2018-09-25T02:00:54.349Z,98679
2018-09-25T02:01:54.505Z,98678
2018-09-25T02:02:54.602Z,98683
2018-09-25T02:03:54.742Z,98674
2018-09-25T02:04:54.683Z,98674
2018-09-25T02:05:54.834Z,98676
2018-09-25T02:06:54.960Z,98674
2018-09-25T02:07:55.176Z,98671
2018-09-25T02:08:55.196Z,98675
2018-09-25T02:09:55.179Z,98676
2018-09-25T02:10:55.297Z,98676
2018-09-25T02:11:55.528Z,98677
2018-09-25T02:12:55.584Z,98678
2018-09-25T02:13:55.597Z,98680
2018-09-25T02:14:55.685Z,98678
2018-09-25T02:15:55.851Z,98670
2018-09-25T02:16:55.843Z,98671
2018-09-25T02:17:55.948Z,98669
2018-09-25T02:18:56.033Z,98671
2018-09-25T02:19:56.119Z,98667
2018-09-25T02:20:56.151Z,98673
2018-09-25T02:21:56.239Z,98672
2018-09-25T02:22:56.256Z,98674
2018-09-25T02:23:56.402Z,98669
2018-09-25T02:25:14.331Z,98674
2018-09-25T02:25:56.480Z,98674
2018-09-25T02:26:56.576Z,98673
2018-09-25T02:27:56.685Z,98679
2018-09-25T02:28:56.767Z,98675
2018-09-25T02:29:56.871Z,98677
2018-09-25T02:30:56.845Z,98675
2018-09-25T02:31:57.060Z,98675
2018-09-25T02:32:57.031Z,98674
2018-09-25T02:33:57.039Z,98671
2018-09-25T02:34:57.216Z,98667
2018-09-25T02:35:57.294Z,98676
2018-09-25T02:36:57.246Z,98674
2018-09-25T02:37:57.338Z,98684
2018-09-25T02:38:57.520Z,98678
2018-09-25T02:39:57.576Z,98680
2018-09-25T02:40:57.623Z,98679
2018-09-25T02:41:57.730Z,98674
2018-09-25T02:42:58.071Z,98674
2018-09-25T02:43:58.020Z,98670
2018-09-25T02:44:58.135Z,98669
2018-09-25T02:45:58.186Z,98679
2018-09-25T02:46:58.285Z,98683
2018-09-25T02:47:58.359Z,98681
2018-09-25T02:48:58.465Z,98678
2018-09-25T02:49:58.584Z,98673
2018-09-25T02:50:58.804Z,98676
2018-09-25T02:51:58.758Z,98674
2018-09-25T02:52:58.946Z,98676
2018-09-25T02:53:59.055Z,98680
2018-09-25T02:54:59.169Z,98679
2018-09-25T02:55:59.410Z,98682
2018-09-25T02:56:59.361Z,98674
2018-09-25T02:57:59.492Z,98673
2018-09-25T02:58:59.607Z,98672
2018-09-25T02:59:59.548Z,98675
2018-09-25T03:00:59.566Z,98669
2018-09-25T03:01:59.619Z,98672
2018-09-25T03:03:17.683Z,98666
2018-09-25T03:04:59.954Z,98676
2018-09-25T03:06:57.735Z,98675
2018-09-25T03:07:57.694Z,98675
2018-09-25T03:08:57.670Z,98674
2018-09-25T03:09:57.673Z,98670
2018-09-25T03:10:57.837Z,98669
2018-09-25T03:11:57.774Z,98668
2018-09-25T03:15:53.297Z,98663
2018-09-25T03:16:09.211Z,98658
2018-09-25T03:17:09.298Z,98657
2018-09-25T03:18:09.433Z,98656
2018-09-25T03:19:09.591Z,98658
2018-09-25T03:20:09.584Z,98660
2018-09-25T03:21:09.637Z,98656
2018-09-25T03:22:09.775Z,98659
2018-09-25T03:23:09.935Z,98665
2018-09-25T03:24:27.950Z,98665
2018-09-25T03:25:10.075Z,98665
2018-09-25T03:28:05.091Z,98664
2018-09-25T03:29:05.350Z,98658
2018-09-25T03:30:05.467Z,98656
2018-09-25T03:31:45.586Z,98655
2018-09-25T03:32:45.714Z,98655
2018-09-25T03:33:45.855Z,98653
2018-09-25T03:34:45.881Z,98653
2018-09-25T03:35:45.814Z,98652
2018-09-25T03:36:47.007Z,98652
2018-09-25T03:37:45.947Z,98652
2018-09-25T03:38:46.253Z,98654
2018-09-25T03:39:46.089Z,98650
2018-09-25T03:40:46.212Z,98652
2018-09-25T03:41:46.459Z,98656
2018-09-25T03:42:46.410Z,98654
2018-09-25T03:44:46.597Z,98656
2018-09-25T03:45:46.747Z,98660
2018-09-25T03:46:46.725Z,98656
2018-09-25T03:47:46.734Z,98658
2018-09-25T03:48:46.914Z,98656
2018-09-25T03:49:46.946Z,98665
2018-09-25T03:50:46.918Z,98658
2018-09-25T03:51:47.038Z,98657
2018-09-25T03:53:47.274Z,98658
2018-09-25T03:54:47.306Z,98661
2018-09-25T03:55:47.412Z,98662
2018-09-25T03:57:05.570Z,98665
2018-09-25T03:57:47.633Z,98661
2018-09-25T03:58:47.753Z,98662
2018-09-25T03:59:47.906Z,98664
2018-09-25T04:00:48.104Z,98666
2018-09-25T04:01:48.057Z,98666
2018-09-25T04:02:48.108Z,98669
2018-09-25T04:03:48.270Z,98664
2018-09-25T04:04:48.467Z,98664
2018-09-25T04:05:48.459Z,98660
2018-09-25T04:06:48.458Z,98661
2018-09-25T04:07:48.679Z,98662
2018-09-25T04:09:06.568Z,98667
2018-09-25T04:10:06.653Z,98665
2018-09-25T04:11:06.775Z,98668
2018-09-25T04:11:48.968Z,98661
2018-09-25T04:12:48.923Z,98657
2018-09-25T04:13:48.981Z,98664
2018-09-25T04:14:49.026Z,98662
2018-09-25T04:15:49.219Z,98663
2018-09-25T04:16:49.210Z,98660
2018-09-25T04:17:49.221Z,98661
2018-09-25T04:18:49.260Z,98661
2018-09-25T04:19:49.466Z,98661
2018-09-25T04:20:49.535Z,98663
2018-09-25T04:21:49.416Z,98661
2018-09-25T04:22:49.554Z,98665
2018-09-25T04:23:49.667Z,98663
2018-09-25T04:24:49.831Z,98661
2018-09-25T04:25:49.803Z,98664
2018-09-25T04:26:49.915Z,98660
2018-09-25T04:27:50.045Z,98659
2018-09-25T04:29:08.092Z,98654
2018-09-25T04:29:50.193Z,98653
2018-09-25T04:31:08.358Z,98652
2018-09-25T04:31:50.401Z,98653
2018-09-25T04:32:50.596Z,98655
2018-09-25T04:33:50.532Z,98652
2018-09-25T04:35:08.583Z,98652
2018-09-25T04:35:50.814Z,98655
2018-09-25T04:36:50.750Z,98655
2018-09-25T04:37:50.772Z,98652
2018-09-25T04:38:50.887Z,98650
2018-09-25T04:39:51.062Z,98649
2018-09-25T04:40:51.077Z,98648
2018-09-25T04:41:51.125Z,98645
2018-09-25T04:42:51.345Z,98648
2018-09-25T04:43:51.472Z,98652
2018-09-25T04:44:51.447Z,98651
2018-09-25T04:45:51.510Z,98647
2018-09-25T04:46:51.704Z,98646
2018-09-25T04:47:51.867Z,98649
2018-09-25T04:48:51.783Z,98651
2018-09-25T04:50:12.528Z,98647
2018-09-25T04:50:52.012Z,98647
2018-09-25T04:51:51.876Z,98647
2018-09-25T04:52:51.914Z,98646
2018-09-25T04:53:51.997Z,98644
2018-09-25T04:55:52.023Z,98649
2018-09-25T04:56:52.135Z,98646
2018-09-25T04:57:52.413Z,98649
2018-09-25T04:58:52.477Z,98647
2018-09-25T04:59:52.522Z,98650
2018-09-25T05:00:52.596Z,98646
2018-09-25T05:01:52.660Z,98650
2018-09-25T05:02:52.813Z,98646
2018-09-25T05:03:52.911Z,98650
2018-09-25T05:04:52.959Z,98648
2018-09-25T05:05:53.007Z,98650
2018-09-25T05:06:53.071Z,98650
2018-09-25T05:07:53.327Z,98646
2018-09-25T05:08:53.174Z,98652
2018-09-25T05:10:11.122Z,98650
2018-09-25T05:10:53.320Z,98649
2018-09-25T05:11:53.337Z,98653
2018-09-25T05:12:53.448Z,98652
2018-09-25T05:14:11.495Z,98652
2018-09-25T05:14:53.696Z,98654
2018-09-25T05:15:53.787Z,98647
2018-09-25T05:16:53.830Z,98652
2018-09-25T05:18:11.990Z,98651
2018-09-25T05:18:53.959Z,98654
2018-09-25T05:19:54.030Z,98654
2018-09-25T05:20:54.105Z,98655
2018-09-25T05:21:54.189Z,98661
2018-09-25T05:22:54.452Z,98661
2018-09-25T05:23:54.369Z,98660
2018-09-25T05:24:54.472Z,98658
2018-09-25T05:26:54.798Z,98666
2018-09-25T05:27:54.725Z,98664
2018-09-25T05:28:54.872Z,98668
2018-09-25T05:29:55.000Z,98667
2018-09-25T05:30:55.229Z,98672
2018-09-25T05:31:55.242Z,98669
2018-09-25T05:32:55.138Z,98672
2018-09-25T05:35:36.044Z,98672
2018-09-25T05:35:52.297Z,98669
2018-09-25T05:36:52.167Z,98674
2018-09-25T05:37:53.463Z,98673
2018-09-25T05:38:52.518Z,98676
2018-09-25T05:40:49.435Z,98675
2018-09-25T05:41:49.416Z,98681
2018-09-25T05:42:49.539Z,98684
2018-09-25T05:45:13.033Z,98678
2018-09-25T05:45:28.951Z,98682
2018-09-25T05:46:29.105Z,98685
2018-09-25T05:47:29.278Z,98688
2018-09-25T05:50:36.542Z,98689
2018-09-25T05:50:52.535Z,98693
2018-09-25T05:51:52.621Z,98693
2018-09-25T05:53:32.691Z,98702
2018-09-25T05:55:31.773Z,98707
2018-09-25T06:04:27.458Z,98715
2018-09-25T06:05:09.668Z,98718
2018-09-25T06:06:09.745Z,98721
2018-09-25T06:07:09.913Z,98719
2018-09-25T06:08:10.046Z,98722
2018-09-25T06:09:10.000Z,98717
2018-09-25T06:10:10.121Z,98718
2018-09-25T06:11:28.094Z,98719
2018-09-25T06:13:10.284Z,98721
2018-09-25T06:14:28.319Z,98727
2018-09-25T06:16:10.528Z,98721
2018-09-25T06:17:10.683Z,98723
2018-09-25T06:18:10.643Z,98725
2018-09-25T06:19:10.712Z,98725
2018-09-25T06:20:10.840Z,98728
2018-09-25T06:21:10.969Z,98733
2018-09-25T06:22:10.993Z,98731
2018-09-25T06:23:11.041Z,98734
2018-09-25T06:24:11.086Z,98730
2018-09-25T06:25:11.235Z,98732
2018-09-25T06:26:11.140Z,98728
2018-09-25T06:27:11.173Z,98731
2018-09-25T06:28:11.330Z,98729
2018-09-25T06:29:11.324Z,98733
2018-09-25T06:30:11.409Z,98735
2018-09-25T06:31:11.474Z,98739
2018-09-25T06:32:11.650Z,98741
2018-09-25T06:33:11.823Z,98739
2018-09-25T06:34:11.722Z,98737
2018-09-25T06:35:11.829Z,98741
2018-09-25T06:37:29.872Z,98742
2018-09-25T06:38:12.000Z,98739
2018-09-25T06:39:12.057Z,98744
2018-09-25T06:40:12.284Z,98740
2018-09-25T06:41:12.158Z,98740
2018-09-25T06:42:12.246Z,98739
2018-09-25T06:43:12.483Z,98736
2018-09-25T06:44:12.335Z,98738
2018-09-25T06:45:12.437Z,98737
2018-09-25T06:46:12.648Z,98735
2018-09-25T06:47:12.612Z,98735
2018-09-25T06:48:12.627Z,98739
2018-09-25T06:49:12.749Z,98735
2018-09-25T06:51:13.076Z,98734
2018-09-25T06:52:12.951Z,98731
2018-09-25T06:53:12.973Z,98737
2018-09-25T06:54:13.006Z,98734
2018-09-25T06:56:13.149Z,98730
2018-09-25T06:57:13.252Z,98733
2018-09-25T06:58:13.429Z,98736
2018-09-25T06:59:13.262Z,98727
2018-09-25T07:00:13.347Z,98729
2018-09-25T07:01:13.587Z,98735
2018-09-25T07:02:13.491Z,98736
2018-09-25T07:03:13.501Z,98738
2018-09-25T07:04:13.632Z,98738
2018-09-25T07:06:13.766Z,98738
2018-09-25T07:08:13.854Z,98733
2018-09-25T07:09:14.009Z,98733
2018-09-25T07:10:14.507Z,98732
2018-09-25T07:11:14.178Z,98735
2018-09-25T07:12:14.224Z,98736
2018-09-25T07:13:14.282Z,98734
2018-09-25T07:14:14.389Z,98735
2018-09-25T07:15:14.488Z,98731
2018-09-25T07:16:14.625Z,98731
2018-09-25T07:17:14.683Z,98738
2018-09-25T07:18:14.707Z,98731
2018-09-25T07:19:14.745Z,98729
2018-09-25T07:20:14.760Z,98734
2018-09-25T07:21:14.968Z,98741
2018-09-25T07:22:15.221Z,98739
2018-09-25T07:23:15.124Z,98738
2018-09-25T07:24:15.210Z,98741
2018-09-25T07:25:15.343Z,98737
2018-09-25T07:26:15.458Z,98738
2018-09-25T07:27:15.390Z,98745
2018-09-25T07:29:15.602Z,98743
2018-09-25T07:30:15.745Z,98746
2018-09-25T07:31:15.703Z,98747
2018-09-25T07:32:15.807Z,98745
2018-09-25T07:33:16.033Z,98748
2018-09-25T07:34:15.939Z,98747
2018-09-25T07:35:15.966Z,98753
2018-09-25T07:36:16.221Z,98750
2018-09-25T07:37:34.060Z,98750
2018-09-25T07:38:16.305Z,98755
2018-09-25T07:39:16.313Z,98758
2018-09-25T07:40:16.551Z,98753
2018-09-25T07:41:16.727Z,98756
2018-09-25T07:42:16.753Z,98754
2018-09-25T07:43:16.806Z,98754
2018-09-25T07:44:16.996Z,98759
2018-09-25T07:45:17.053Z,98758
2018-09-25T07:46:17.141Z,98748
2018-09-25T07:47:17.095Z,98752
2018-09-25T07:48:17.414Z,98753
2018-09-25T07:49:17.506Z,98757
2018-09-25T07:50:17.418Z,98755
2018-09-25T07:51:17.570Z,98762
2018-09-25T07:52:17.532Z,98764
2018-09-25T07:53:17.560Z,98769
2018-09-25T07:54:17.588Z,98770
2018-09-25T07:55:17.785Z,98768
2018-09-25T07:56:35.744Z,98767
2018-09-25T07:57:17.849Z,98769
2018-09-25T07:58:17.956Z,98773
2018-09-25T07:59:18.107Z,98769
2018-09-25T08:00:18.299Z,98774
2018-09-25T08:01:36.294Z,98777
2018-09-25T08:03:18.647Z,98770
2018-09-25T08:04:18.676Z,98769
2018-09-25T08:05:18.684Z,98771
2018-09-25T08:06:18.580Z,98770
2018-09-25T08:07:18.790Z,98770
2018-09-25T08:08:18.754Z,98771
2018-09-25T08:09:18.872Z,98770
2018-09-25T08:10:18.967Z,98770
2018-09-25T08:11:19.034Z,98767
2018-09-25T08:12:19.237Z,98766
2018-09-25T08:13:19.349Z,98771
2018-09-25T08:14:19.248Z,98773
2018-09-25T08:15:19.448Z,98779
2018-09-25T08:16:20.576Z,98779
2018-09-25T08:17:19.790Z,98774
2018-09-25T08:18:19.558Z,98770
2018-09-25T08:19:19.681Z,98769
2018-09-25T08:20:19.962Z,98772
2018-09-25T08:21:20.020Z,98769
2018-09-25T08:22:20.018Z,98774
2018-09-25T08:23:19.079Z,98770
2018-09-25T08:24:20.222Z,98772
2018-09-25T08:25:20.371Z,98777
2018-09-25T08:26:20.344Z,98779
2018-09-25T08:27:20.441Z,98773
2018-09-25T08:28:20.630Z,98777
2018-09-25T08:29:20.520Z,98778
2018-09-25T08:30:20.524Z,98778
2018-09-25T08:31:20.637Z,98778
2018-09-25T08:32:20.769Z,98774
2018-09-25T08:33:20.717Z,98777
2018-09-25T08:34:20.747Z,98779
2018-09-25T08:35:20.906Z,98780
2018-09-25T08:36:20.824Z,98782
2018-09-25T08:37:20.835Z,98780
2018-09-25T08:39:21.265Z,98781
2018-09-25T08:40:21.182Z,98776
2018-09-25T08:41:21.197Z,98774
2018-09-25T08:42:21.357Z,98774
2018-09-25T08:43:21.508Z,98777
2018-09-25T08:44:21.457Z,98775
2018-09-25T08:45:21.593Z,98775
2018-09-25T08:46:21.853Z,98772
2018-09-25T08:47:21.954Z,98778
2018-09-25T08:48:21.933Z,98777
2018-09-25T08:49:21.970Z,98774
2018-09-25T08:50:22.133Z,98767
2018-09-25T08:51:22.162Z,98767
2018-09-25T08:52:22.190Z,98769
2018-09-25T08:53:22.371Z,98769
2018-09-25T08:54:22.386Z,98767
2018-09-25T08:55:22.392Z,98769
2018-09-25T08:56:22.439Z,98770
2018-09-25T08:57:22.693Z,98767
2018-09-25T08:58:22.904Z,98759
2018-09-25T08:59:22.729Z,98761
2018-09-25T09:00:22.840Z,98758
2018-09-25T09:01:22.979Z,98762
2018-09-25T09:02:23.187Z,98757
2018-09-25T09:03:23.300Z,98757
2018-09-25T09:04:23.308Z,98762
2018-09-25T09:05:23.326Z,98764
2018-09-25T09:06:23.319Z,98756
2018-09-25T09:07:23.558Z,98759
2018-09-25T09:08:23.627Z,98754
2018-09-25T09:09:23.568Z,98754
2018-09-25T09:10:23.705Z,98758
2018-09-25T09:11:23.739Z,98761
2018-09-25T09:12:23.712Z,98757
2018-09-25T09:13:23.819Z,98754
2018-09-25T09:14:24.001Z,98753
2018-09-25T09:15:23.925Z,98758
2018-09-25T09:16:41.804Z,98752
2018-09-25T09:17:23.963Z,98753
2018-09-25T09:18:24.101Z,98751
2018-09-25T09:19:24.100Z,98757
2018-09-25T09:20:24.224Z,98743
2018-09-25T09:21:24.398Z,98747
2018-09-25T09:22:42.365Z,98745
2018-09-25T09:23:24.463Z,98739
2018-09-25T09:24:24.633Z,98739
2018-09-25T09:25:24.805Z,98735
2018-09-25T09:26:24.935Z,98734
2018-09-25T09:27:24.908Z,98738
2018-09-25T09:28:24.877Z,98737
2018-09-25T09:30:42.956Z,98733
2018-09-25T09:31:25.068Z,98734
2018-09-25T09:32:25.189Z,98727
2018-09-25T09:33:43.097Z,98731
2018-09-25T09:34:25.143Z,98732
2018-09-25T09:35:25.342Z,98733
2018-09-25T09:36:25.407Z,98737
2018-09-25T09:37:25.373Z,98733
2018-09-25T09:38:25.374Z,98733
2018-09-25T09:39:25.535Z,98735
2018-09-25T09:40:25.706Z,98723
2018-09-25T09:41:25.745Z,98725
2018-09-25T09:42:25.745Z,98728
2018-09-25T09:43:25.904Z,98727
2018-09-25T09:44:25.973Z,98725
2018-09-25T09:45:26.014Z,98726
2018-09-25T09:46:27.082Z,98726
2018-09-25T09:47:26.110Z,98724
2018-09-25T09:50:06.531Z,98731
2018-09-25T09:50:22.611Z,98725
2018-09-25T09:51:22.725Z,98719
2018-09-25T09:52:22.851Z,98721
2018-09-25T09:53:22.897Z,98722
2018-09-25T09:54:22.882Z,98722
2018-09-25T09:55:23.069Z,98714
2018-09-25T09:56:23.042Z,98722
2018-09-25T10:19:40.551Z,98712
2018-09-25T10:20:40.644Z,98709
2018-09-25T10:21:40.673Z,98716
2018-09-25T10:22:40.817Z,98712
2018-09-25T10:23:40.809Z,98712
2018-09-25T10:24:40.842Z,98705
2018-09-25T10:25:41.051Z,98705
2018-09-25T10:26:41.031Z,98705
2018-09-25T10:27:41.321Z,98703
2018-09-25T10:28:41.331Z,98703
2018-09-25T10:29:41.483Z,98704
2018-09-25T10:30:41.446Z,98703
2018-09-25T10:31:41.506Z,98704
2018-09-25T10:32:41.658Z,98698
2018-09-25T10:33:41.656Z,98704
2018-09-25T10:34:41.875Z,98706
2018-09-25T10:35:41.975Z,98702
2018-09-25T10:36:59.828Z,98702
2018-09-25T10:37:43.087Z,98699
2018-09-25T10:38:42.181Z,98698
2018-09-25T10:39:42.225Z,98699
2018-09-25T10:40:42.350Z,98697
2018-09-25T10:41:42.534Z,98695
2018-09-25T10:42:42.536Z,98701
2018-09-25T10:43:42.618Z,98701
2018-09-25T10:44:42.625Z,98705
2018-09-25T10:45:42.732Z,98698
2018-09-25T10:46:42.755Z,98707
2018-09-25T10:47:42.777Z,98705
2018-09-25T10:48:42.942Z,98705
2018-09-25T10:49:42.943Z,98703
2018-09-25T10:50:42.963Z,98705
2018-09-25T10:51:42.934Z,98701
2018-09-25T10:52:43.145Z,98698
2018-09-25T10:53:43.243Z,98701
2018-09-25T10:54:43.225Z,98701
2018-09-25T10:55:43.271Z,98702
2018-09-25T10:56:43.426Z,98697
2018-09-25T10:57:43.453Z,98701
2018-09-25T10:58:43.478Z,98703
2018-09-25T10:59:43.638Z,98702
2018-09-25T11:00:43.710Z,98696
2018-09-25T11:01:43.828Z,98700
2018-09-25T11:02:43.829Z,98701
2018-09-25T11:03:43.760Z,98694
2018-09-25T11:04:43.921Z,98694
2018-09-25T11:05:43.919Z,98695
2018-09-25T11:06:43.944Z,98699
2018-09-25T11:07:44.116Z,98698
2018-09-25T11:08:44.141Z,98692
2018-09-25T11:09:44.173Z,98698
2018-09-25T11:10:44.233Z,98690
2018-09-25T11:12:44.504Z,98695
2018-09-25T11:13:44.730Z,98694
2018-09-25T11:14:44.735Z,98694
2018-09-25T11:15:44.805Z,98691
2018-09-25T11:16:44.795Z,98685
2018-09-25T11:19:43.242Z,98684
2018-09-25T11:20:59.305Z,98691
2018-09-25T11:47:43.384Z,98686
2018-09-25T11:47:59.538Z,98658
2018-09-25T11:48:59.650Z,98670
2018-09-25T11:49:59.707Z,98669
2018-09-25T11:50:59.670Z,98674
2018-09-25T11:51:59.774Z,98666
2018-09-25T11:52:59.862Z,98663
2018-09-25T11:53:59.809Z,98662
2018-09-25T11:54:59.939Z,98665
2018-09-25T11:56:00.136Z,98655
2018-09-25T11:57:00.323Z,98657
2018-09-25T11:58:00.273Z,98662
2018-09-25T11:59:00.266Z,98656
2018-09-25T12:00:18.458Z,98658
2018-09-25T12:01:00.652Z,98657
2018-09-25T12:02:00.690Z,98660
2018-09-25T12:03:00.753Z,98659
2018-09-25T12:04:01.039Z,98658
2018-09-25T12:05:01.080Z,98667
2018-09-25T12:06:01.021Z,98660
2018-09-25T12:07:01.209Z,98655
2018-09-25T12:08:01.364Z,98653
2018-09-25T12:09:01.202Z,98650
2018-09-25T12:10:01.326Z,98642
2018-09-25T12:11:01.448Z,98645
2018-09-25T12:12:01.628Z,98635
2018-09-25T12:13:01.408Z,98642
2018-09-25T12:14:01.518Z,98643
2018-09-25T12:15:01.802Z,98641
2018-09-25T12:16:01.950Z,98638
2018-09-25T12:17:02.002Z,98638
2018-09-25T12:18:02.038Z,98632
2018-09-25T12:20:02.186Z,98633
2018-09-25T12:21:02.155Z,98628
2018-09-25T12:22:02.396Z,98635
2018-09-25T12:23:02.500Z,98632
2018-09-25T12:24:02.531Z,98634
2018-09-25T12:25:02.600Z,98633
2018-09-25T12:26:02.653Z,98636
2018-09-25T12:27:02.726Z,98635
2018-09-25T12:28:02.890Z,98634
2018-09-25T12:29:02.739Z,98636
2018-09-25T12:30:02.805Z,98634
2018-09-25T12:31:03.037Z,98637
2018-09-25T12:32:02.921Z,98632
2018-09-25T12:33:03.066Z,98635
2018-09-25T12:34:02.991Z,98641
2018-09-25T12:35:03.174Z,98635
2018-09-25T12:36:03.034Z,98633
2018-09-25T12:37:03.156Z,98631
2018-09-25T12:38:03.148Z,98629
2018-09-25T12:39:03.324Z,98632
2018-09-25T12:40:03.297Z,98634
2018-09-25T12:41:03.407Z,98627
2018-09-25T12:42:03.508Z,98632
2018-09-25T12:43:03.634Z,98628
2018-09-25T12:44:03.635Z,98629
2018-09-25T12:45:03.670Z,98625
2018-09-25T12:46:03.857Z,98622
2018-09-25T12:47:03.861Z,98624
2018-09-25T12:48:03.885Z,98620
2018-09-25T12:49:03.890Z,98611
2018-09-25T12:50:03.967Z,98619
2018-09-25T12:52:03.924Z,98619
2018-09-25T12:53:04.233Z,98621
2018-09-25T12:54:04.337Z,98616
2018-09-25T12:55:04.390Z,98616
2018-09-25T12:56:04.330Z,98620
2018-09-25T12:57:04.527Z,98619
2018-09-25T12:58:04.667Z,98624
2018-09-25T12:59:04.741Z,98613
2018-09-25T13:00:04.709Z,98611
2018-09-25T13:01:04.961Z,98612
2018-09-25T13:02:05.153Z,98612
2018-09-25T13:03:05.163Z,98610
2018-09-25T13:04:05.330Z,98601
2018-09-25T13:05:05.320Z,98603
2018-09-25T13:06:05.168Z,98608
2018-09-25T13:08:05.486Z,98597
2018-09-25T13:09:05.395Z,98604
2018-09-25T13:10:05.544Z,98603
2018-09-25T13:11:05.515Z,98604
2018-09-25T13:12:05.568Z,98598
2018-09-25T13:13:23.473Z,98606
2018-09-25T13:14:05.622Z,98603
2018-09-25T13:15:05.880Z,98604
2018-09-25T13:16:06.103Z,98606
2018-09-25T13:17:05.951Z,98608
2018-09-25T13:19:06.160Z,98609
2018-09-25T13:20:06.278Z,98608
2018-09-25T13:21:24.198Z,98607
2018-09-25T13:22:06.328Z,98610
2018-09-25T13:23:06.452Z,98614
2018-09-25T13:25:06.646Z,98617
2018-09-25T13:26:06.536Z,98612
2018-09-25T13:27:06.700Z,98608
2018-09-25T13:28:06.659Z,98616
2018-09-25T13:29:06.723Z,98612
2018-09-25T13:30:06.835Z,98616
2018-09-25T13:31:06.935Z,98620
2018-09-25T13:32:07.070Z,98617
2018-09-25T13:33:07.151Z,98616
2018-09-25T13:34:25.062Z,98624
2018-09-25T13:35:07.298Z,98616
2018-09-25T13:37:07.314Z,98620
2018-09-25T13:38:07.445Z,98619
2018-09-25T13:39:07.437Z,98617
2018-09-25T13:40:07.597Z,98615
2018-09-25T13:41:07.570Z,98616
2018-09-25T13:42:07.601Z,98621
2018-09-25T13:43:07.749Z,98623
2018-09-25T13:44:07.836Z,98616
2018-09-25T13:46:07.857Z,98614
2018-09-25T13:47:07.959Z,98616
2018-09-25T13:48:08.014Z,98620
2018-09-25T13:49:08.185Z,98619
2018-09-25T13:50:26.084Z,98616
2018-09-25T13:51:09.264Z,98627
2018-09-25T13:52:08.431Z,98619
2018-09-25T13:54:08.503Z,98618
2018-09-25T13:55:08.677Z,98620
2018-09-25T13:56:08.648Z,98619
2018-09-25T13:57:08.526Z,98628
2018-09-25T13:58:08.699Z,98630
2018-09-25T13:59:08.874Z,98620
2018-09-25T14:00:08.815Z,98615
2018-09-25T14:01:08.876Z,98625
2018-09-25T14:02:08.979Z,98623
2018-09-25T14:03:09.021Z,98623
2018-09-25T14:04:09.030Z,98626
2018-09-25T14:05:09.154Z,98624
2018-09-25T14:07:09.266Z,98621
2018-09-25T14:08:09.267Z,98619
2018-09-25T14:09:09.442Z,98623
2018-09-25T14:10:09.374Z,98622
2018-09-25T14:11:09.509Z,98620
2018-09-25T14:12:09.720Z,98623
2018-09-25T14:13:09.664Z,98620
2018-09-25T14:14:09.569Z,98615
2018-09-25T14:15:09.666Z,98621
2018-09-25T14:16:27.594Z,98623
2018-09-25T14:17:09.714Z,98617
2018-09-25T14:18:09.859Z,98621
2018-09-25T14:19:27.842Z,98624
2018-09-25T14:21:43.528Z,98629
2018-09-25T14:23:25.919Z,98634
2018-09-25T14:25:25.945Z,98632
2018-09-25T14:49:47.171Z,98627
2018-09-25T14:50:47.159Z,98631
2018-09-25T14:51:47.291Z,98628
2018-09-25T14:54:05.259Z,98624
2018-09-25T14:54:47.400Z,98628
2018-09-25T14:55:47.460Z,98631
2018-09-25T14:56:47.498Z,98621
2018-09-25T14:57:47.733Z,98626
2018-09-25T14:58:47.766Z,98626
2018-09-25T14:59:47.844Z,98624
2018-09-25T15:00:47.935Z,98629
2018-09-25T15:02:05.838Z,98625